F/V Bougainville — FMAS — position and weather

sailwx.info

Track history (hours):
 
Tides and Currents Weather Stations Pressure Air Temp Water Temp Dewpoint Dewpoint Depression Visibility Wind Speed Wind Dir Waves Ship Positions

F/V Bougainville

Last reported at 2017-Sep-19 04:03 UTC. Time now 2017-Sep-19 22:39 UTC.
Position N 43°51' W 003°11'.

Length 24 m; draft 4.1 m.

Type: Fishing. MMSI: 228190600.

Date/timePositionNaut miles runAvg speedWind from/ knotsBaromVisibWave heightAir tempDewpointWater temp
2017-Sep-19 04:03N 43°51' W 003°11'0 8.8
2017-Sep-19 04:00N 43°51' W 003°11'5 8.9
2017-Sep-19 03:29N 43°47' W 003°16'4 8.5
2017-Sep-19 03:00N 43°46' W 003°21'4 8.9
2017-Sep-19 02:30N 43°46' W 003°27'5 8.9
2017-Sep-19 01:59N 43°46' W 003°34'  
2017-Sep-15 21:38N 47°44' W 004°58'210.5
2017-Sep-15 21:29N 47°45' W 004°57'510.7
2017-Sep-15 21:00N 47°50' W 004°54'510.5
2017-Sep-15 20:30N 47°55' W 004°51'510.4
2017-Sep-15 20:00N 47°59' W 004°48'4 8.8
2017-Sep-15 19:30N 48°04' W 004°45'510.2
2017-Sep-15 19:00N 48°05' W 004°38'5 9.0
2017-Sep-15 18:30N 48°06' W 004°31'5 9.2
2017-Sep-15 18:00N 48°07' W 004°25'3 6.8
2017-Sep-15 17:30N 48°06' W 004°20'0 0.0
2017-Sep-15 17:00N 48°06' W 004°20'0 0.0
2017-Sep-15 16:30N 48°06' W 004°20'0 0.0
2017-Sep-15 16:01N 48°06' W 004°20'0 0.0
2017-Sep-15 15:30N 48°06' W 004°20'0 0.0
2017-Sep-15 15:00N 48°06' W 004°20'0 0.0
2017-Sep-15 14:30N 48°06' W 004°20'0 0.0
2017-Sep-15 14:00N 48°06' W 004°20'0 0.0
2017-Sep-15 13:31N 48°06' W 004°20'0 0.0
2017-Sep-15 13:00N 48°06' W 004°20'0 0.1
2017-Sep-15 12:30N 48°06' W 004°20'0 0.0
2017-Sep-15 12:00N 48°06' W 004°20'0 0.0
2017-Sep-15 11:31N 48°06' W 004°20'0 0.0
2017-Sep-15 11:00N 48°06' W 004°20'0 0.0
2017-Sep-15 10:30N 48°06' W 004°20'0 0.0
2017-Sep-15 10:00N 48°06' W 004°20'0 0.0
2017-Sep-15 09:30N 48°06' W 004°20'0 0.1
2017-Sep-15 09:00N 48°06' W 004°20'0 0.0
2017-Sep-15 08:30N 48°06' W 004°20'0 0.0
2017-Sep-15 08:00N 48°06' W 004°20'0 0.0
2017-Sep-15 07:30N 48°06' W 004°20'0 0.0
2017-Sep-15 02:05N 48°06' W 004°20'0 0.0
2017-Sep-15 01:53N 48°06' W 004°20'0 0.0
2017-Sep-15 01:29N 48°06' W 004°20'0 0.0
2017-Sep-15 00:52N 48°06' W 004°20'0 0.0
2017-Sep-15 00:16N 48°06' W 004°20'0 0.0
2017-Sep-14 23:51N 48°06' W 004°20'0 0.0
2017-Sep-14 23:01N 48°06' W 004°20'0 0.0
2017-Sep-14 22:54N 48°06' W 004°20'0 0.0
2017-Sep-14 22:27N 48°06' W 004°20'0 0.0
2017-Sep-14 21:57N 48°06' W 004°20'0 0.0
2017-Sep-14 21:30N 48°06' W 004°20'0 0.0
2017-Sep-14 20:21N 48°06' W 004°20'0 0.0
2017-Sep-14 17:20N 48°06' W 004°20'0 0.0
2017-Sep-14 17:00N 48°06' W 004°20'0 0.0
2017-Sep-14 16:31N 48°06' W 004°20'0 0.0
2017-Sep-14 16:00N 48°06' W 004°20'0 0.0
2017-Sep-14 15:31N 48°06' W 004°20'0 0.0
2017-Sep-14 15:00N 48°06' W 004°20'0 0.0
2017-Sep-14 14:30N 48°06' W 004°20'0 0.0
2017-Sep-14 14:00N 48°06' W 004°20'0 0.0
2017-Sep-14 13:30N 48°06' W 004°20'0 0.0
2017-Sep-14 13:01N 48°06' W 004°20'0 0.0
2017-Sep-14 12:30N 48°06' W 004°20'0 0.0
2017-Sep-14 12:00N 48°06' W 004°20'0 0.0
2017-Sep-14 11:30N 48°06' W 004°20'0 0.0
2017-Sep-14 11:00N 48°06' W 004°20'0 0.0
2017-Sep-14 10:30N 48°06' W 004°20'0 0.0
2017-Sep-14 10:00N 48°06' W 004°20'0 0.0
2017-Sep-14 09:30N 48°06' W 004°20'0 0.0
2017-Sep-14 09:00N 48°06' W 004°20'0 0.0
2017-Sep-14 08:30N 48°06' W 004°20'0 0.0
2017-Sep-14 08:00N 48°06' W 004°20'0 0.0
2017-Sep-14 07:30N 48°06' W 004°20'0 0.0
2017-Sep-14 07:00N 48°06' W 004°20'0 0.0
2017-Sep-14 06:30N 48°06' W 004°20'0 0.0
2017-Sep-14 06:00N 48°06' W 004°20'0 0.0
2017-Sep-14 05:30N 48°06' W 004°20'0 0.0
2017-Sep-14 05:00N 48°06' W 004°20'0 0.0
2017-Sep-14 04:30N 48°06' W 004°20'0 0.0
2017-Sep-14 04:00N 48°06' W 004°20'0 0.0
2017-Sep-14 03:30N 48°06' W 004°20'0 0.0
2017-Sep-14 03:00N 48°06' W 004°20'0 0.0
2017-Sep-14 02:30N 48°06' W 004°20'0 0.0
2017-Sep-14 02:00N 48°06' W 004°20'0 0.0
2017-Sep-14 01:30N 48°06' W 004°20'0 0.0
2017-Sep-14 01:00N 48°06' W 004°20'0 0.0
2017-Sep-14 00:30N 48°06' W 004°20'0 0.0
2017-Sep-14 00:00N 48°06' W 004°20'0 0.0
2017-Sep-13 23:30N 48°06' W 004°20'0 0.0
2017-Sep-13 23:00N 48°06' W 004°20'0 0.0
2017-Sep-13 22:30N 48°06' W 004°20'0 0.0
2017-Sep-13 22:00N 48°06' W 004°20'0 0.0
2017-Sep-13 21:30N 48°06' W 004°20'0 0.0
2017-Sep-13 21:00N 48°06' W 004°20'0 0.0
2017-Sep-13 20:30N 48°06' W 004°20'0 0.0
2017-Sep-13 20:00N 48°06' W 004°20'0 0.0
2017-Sep-13 19:30N 48°06' W 004°20'0 0.0
2017-Sep-13 19:01N 48°06' W 004°20'0 0.0
2017-Sep-13 18:31N 48°06' W 004°20'0 0.0
2017-Sep-13 18:00N 48°06' W 004°20'0 0.0
2017-Sep-13 17:30N 48°06' W 004°20'0 0.0
2017-Sep-13 17:00N 48°06' W 004°20'0 0.0
2017-Sep-13 16:30N 48°06' W 004°20'0 0.0
2017-Sep-13 15:59N 48°06' W 004°20'0 0.0
2017-Sep-13 15:30N 48°06' W 004°20'0 0.0
2017-Sep-13 15:00N 48°06' W 004°20'0 0.0
2017-Sep-13 14:30N 48°06' W 004°20'0 0.0
2017-Sep-13 14:00N 48°06' W 004°20'0 0.0
2017-Sep-13 13:30N 48°06' W 004°20'0 0.0
2017-Sep-13 13:00N 48°06' W 004°20'0 0.0
2017-Sep-13 12:30N 48°06' W 004°20'0 0.0
2017-Sep-13 12:00N 48°06' W 004°20'0 0.0
2017-Sep-13 11:31N 48°06' W 004°20'0 0.0
2017-Sep-13 11:00N 48°06' W 004°20'0 0.0
2017-Sep-13 10:31N 48°06' W 004°20'0 0.0
2017-Sep-13 10:00N 48°06' W 004°20'0 0.0
2017-Sep-13 09:30N 48°06' W 004°20'0 0.0
2017-Sep-13 09:00N 48°06' W 004°20'0 0.0
2017-Sep-13 08:30N 48°06' W 004°20'0 0.0
2017-Sep-13 08:00N 48°06' W 004°20'0 0.0
2017-Sep-13 07:30N 48°06' W 004°20'0 0.0
2017-Sep-13 07:01N 48°06' W 004°20'0 0.0
2017-Sep-13 06:30N 48°06' W 004°20'0 0.0
2017-Sep-13 06:00N 48°06' W 004°20'0 0.0
2017-Sep-13 05:30N 48°06' W 004°20'0 0.0
2017-Sep-13 05:00N 48°06' W 004°20'0 0.0
2017-Sep-13 04:30N 48°06' W 004°20'0 0.0
2017-Sep-13 04:00N 48°06' W 004°20'0 0.0
2017-Sep-13 03:30N 48°06' W 004°20'0 0.0
2017-Sep-13 03:00N 48°06' W 004°20'0 0.0
2017-Sep-13 02:30N 48°06' W 004°20'0 0.0
2017-Sep-13 02:00N 48°06' W 004°20'0 0.0
2017-Sep-13 01:29N 48°06' W 004°20'0 0.0
2017-Sep-13 01:00N 48°06' W 004°20'0 0.0
2017-Sep-13 00:30N 48°06' W 004°20'0 0.0
2017-Sep-13 00:00N 48°06' W 004°20'0 0.0
2017-Sep-12 23:30N 48°06' W 004°20'0 0.0
2017-Sep-12 23:00N 48°06' W 004°20'0 0.0
2017-Sep-12 22:30N 48°06' W 004°20'0 0.0
2017-Sep-12 22:00N 48°06' W 004°20'0 0.0
2017-Sep-12 21:30N 48°06' W 004°20'0 0.0
2017-Sep-12 21:00N 48°06' W 004°20'0 0.0
2017-Sep-12 20:31N 48°06' W 004°20'0 0.0
2017-Sep-12 20:00N 48°06' W 004°20'0 0.0
2017-Sep-12 19:30N 48°06' W 004°20'0 0.0
2017-Sep-12 19:01N 48°06' W 004°20'0 0.0
2017-Sep-12 18:30N 48°06' W 004°20'0 0.0
2017-Sep-12 18:00N 48°06' W 004°20'0 0.0
2017-Sep-12 17:30N 48°06' W 004°20'0 0.0
2017-Sep-12 17:00N 48°06' W 004°20'0 0.0
2017-Sep-12 16:30N 48°06' W 004°20'0 0.0
2017-Sep-12 16:00N 48°06' W 004°20'0 0.0
2017-Sep-12 15:30N 48°06' W 004°20'0 0.0
2017-Sep-12 14:51N 48°06' W 004°20'0 0.0
2017-Sep-12 14:29N 48°06' W 004°20'0 0.0
2017-Sep-12 13:59N 48°06' W 004°20'0 0.0
2017-Sep-12 12:31N 48°06' W 004°20'0 0.0
2017-Sep-12 12:30N 48°06' W 004°20'0 0.0
2017-Sep-12 12:00N 48°06' W 004°20'0 0.0
2017-Sep-12 11:30N 48°06' W 004°20'0 0.2
2017-Sep-12 11:00N 48°06' W 004°19'0 0.0
2017-Sep-12 10:30N 48°06' W 004°19'0 0.0
2017-Sep-12 10:01N 48°06' W 004°19'0 0.0
2017-Sep-12 09:31N 48°06' W 004°19'0 0.0
2017-Sep-12 09:00N 48°06' W 004°19'0 0.0
2017-Sep-12 08:30N 48°06' W 004°19'0 0.0
2017-Sep-12 08:00N 48°06' W 004°19'0 0.0
2017-Sep-12 07:30N 48°06' W 004°19'0 0.0
2017-Sep-12 07:00N 48°06' W 004°19'0 0.0
2017-Sep-12 06:30N 48°06' W 004°19'0 0.0
2017-Sep-12 06:00N 48°06' W 004°19'0 0.0
2017-Sep-12 05:30N 48°06' W 004°19'0 0.0
2017-Sep-12 05:00N 48°06' W 004°19'0 0.0
2017-Sep-12 04:30N 48°06' W 004°19'0 0.0
2017-Sep-12 04:00N 48°06' W 004°19'0 0.0
2017-Sep-12 03:30N 48°06' W 004°19'0 0.0
2017-Sep-12 03:00N 48°06' W 004°19'0 0.0
2017-Sep-12 02:30N 48°06' W 004°19'0 0.0
2017-Sep-12 02:00N 48°06' W 004°19'0 0.0
2017-Sep-12 01:30N 48°06' W 004°19'0 0.0
2017-Sep-12 01:00N 48°06' W 004°19'0 0.0
2017-Sep-12 00:30N 48°06' W 004°19'0 0.0
2017-Sep-12 00:00N 48°06' W 004°19'0 0.0
2017-Sep-11 23:30N 48°06' W 004°19'0 0.0
2017-Sep-11 23:00N 48°06' W 004°19'0 0.0
2017-Sep-11 22:30N 48°06' W 004°19'0 0.0
2017-Sep-11 22:00N 48°06' W 004°19'0 0.0
2017-Sep-11 21:30N 48°06' W 004°19'0 0.0
2017-Sep-11 21:00N 48°06' W 004°19'0 0.0
2017-Sep-11 20:30N 48°06' W 004°19'0 0.0
2017-Sep-11 20:00N 48°06' W 004°19'0 0.0
2017-Sep-11 19:30N 48°06' W 004°19'0 0.0
2017-Sep-11 19:00N 48°06' W 004°19'0 0.0
2017-Sep-11 18:30N 48°06' W 004°19'0 0.0
2017-Sep-11 18:00N 48°06' W 004°19'0 0.0
2017-Sep-11 17:30N 48°06' W 004°19'0 0.0
2017-Sep-11 17:00N 48°06' W 004°19'0 0.0
2017-Sep-11 16:30N 48°06' W 004°19'0 0.0
2017-Sep-11 16:00N 48°06' W 004°19'0 0.0
2017-Sep-11 15:30N 48°06' W 004°19'0 0.0
2017-Sep-11 15:00N 48°06' W 004°19'0 0.0
2017-Sep-11 14:30N 48°06' W 004°19'0 0.0
2017-Sep-11 14:00N 48°06' W 004°19'0 0.0
2017-Sep-11 13:30N 48°06' W 004°19'0 0.0
2017-Sep-11 13:00N 48°06' W 004°19'0 0.0
2017-Sep-11 12:30N 48°06' W 004°19'0 0.0
2017-Sep-11 12:00N 48°06' W 004°19'0 0.0
2017-Sep-11 11:30N 48°06' W 004°19'0 0.0
2017-Sep-11 11:00N 48°06' W 004°19'0 0.0
2017-Sep-11 10:30N 48°06' W 004°19'0 0.0
2017-Sep-11 10:00N 48°06' W 004°19'0 0.0
2017-Sep-11 09:30N 48°06' W 004°19'0 0.0
2017-Sep-11 09:00N 48°06' W 004°19'0 0.0
2017-Sep-11 08:30N 48°06' W 004°19'0 0.0
2017-Sep-11 08:00N 48°06' W 004°19'0 0.0
2017-Sep-11 07:30N 48°06' W 004°19'0 0.0
2017-Sep-11 07:00N 48°06' W 004°19'0 0.0
2017-Sep-11 06:30N 48°06' W 004°19'0 0.0
2017-Sep-11 06:00N 48°06' W 004°19'0 0.0
2017-Sep-11 05:30N 48°06' W 004°19'0 0.0
2017-Sep-11 05:00N 48°06' W 004°19'0 0.1
2017-Sep-11 04:30N 48°06' W 004°20'3 6.0
2017-Sep-11 04:01N 48°07' W 004°24'4 8.7
2017-Sep-11 03:31N 48°07' W 004°30'5 9.8
2017-Sep-11 03:00N 48°06' W 004°37'5 9.7
2017-Sep-11 02:30N 48°05' W 004°44'510.3
2017-Sep-11 02:01N 47°60' W 004°44'510.9
2017-Sep-11 01:30N 47°55' W 004°41'510.2
2017-Sep-11 01:00N 47°50' W 004°38'65 9.3
2017-Sep-10 18:02N 46°50' W 004°02'0 9.5
2017-Sep-10 18:00N 46°49' W 004°02'57 9.6
2017-Sep-10 12:01N 45°57' W 003°31'  
Track history (hours):
 
Tides and Currents Weather Stations Pressure Air Temp Water Temp Dewpoint Dewpoint Depression Visibility Wind Speed Wind Dir Waves Ship Positions

F/V Bougainville

Last reported at 2017-Sep-19 04:03 UTC. Time now 2017-Sep-19 22:39 UTC.
Position N 43°51' W 003°11'.

Length 24 m; draft 4.1 m.

Type: Fishing. MMSI: 228190600.

Date/timePositionNaut miles runAvg speedWind from/ knotsBaromVisibWave heightAir tempDewpointWater temp
2017-Sep-19 04:03N 43°51' W 003°11'0 8.8
2017-Sep-19 04:00N 43°51' W 003°11'5 8.9
2017-Sep-19 03:29N 43°47' W 003°16'4 8.5
2017-Sep-19 03:00N 43°46' W 003°21'4 8.9
2017-Sep-19 02:30N 43°46' W 003°27'5 8.9
2017-Sep-19 01:59N 43°46' W 003°34'  
2017-Sep-15 21:38N 47°44' W 004°58'210.5
2017-Sep-15 21:29N 47°45' W 004°57'510.7
2017-Sep-15 21:00N 47°50' W 004°54'510.5
2017-Sep-15 20:30N 47°55' W 004°51'510.4
2017-Sep-15 20:00N 47°59' W 004°48'4 8.8
2017-Sep-15 19:30N 48°04' W 004°45'510.2
2017-Sep-15 19:00N 48°05' W 004°38'5 9.0
2017-Sep-15 18:30N 48°06' W 004°31'5 9.2
2017-Sep-15 18:00N 48°07' W 004°25'3 6.8
2017-Sep-15 17:30N 48°06' W 004°20'0 0.0
2017-Sep-15 17:00N 48°06' W 004°20'0 0.0
2017-Sep-15 16:30N 48°06' W 004°20'0 0.0
2017-Sep-15 16:01N 48°06' W 004°20'0 0.0
2017-Sep-15 15:30N 48°06' W 004°20'0 0.0
2017-Sep-15 15:00N 48°06' W 004°20'0 0.0
2017-Sep-15 14:30N 48°06' W 004°20'0 0.0
2017-Sep-15 14:00N 48°06' W 004°20'0 0.0
2017-Sep-15 13:31N 48°06' W 004°20'0 0.0
2017-Sep-15 13:00N 48°06' W 004°20'0 0.1
2017-Sep-15 12:30N 48°06' W 004°20'0 0.0
2017-Sep-15 12:00N 48°06' W 004°20'0 0.0
2017-Sep-15 11:31N 48°06' W 004°20'0 0.0
2017-Sep-15 11:00N 48°06' W 004°20'0 0.0
2017-Sep-15 10:30N 48°06' W 004°20'0 0.0
2017-Sep-15 10:00N 48°06' W 004°20'0 0.0
2017-Sep-15 09:30N 48°06' W 004°20'0 0.1
2017-Sep-15 09:00N 48°06' W 004°20'0 0.0
2017-Sep-15 08:30N 48°06' W 004°20'0 0.0
2017-Sep-15 08:00N 48°06' W 004°20'0 0.0
2017-Sep-15 07:30N 48°06' W 004°20'0 0.0
2017-Sep-15 02:05N 48°06' W 004°20'0 0.0
2017-Sep-15 01:53N 48°06' W 004°20'0 0.0
2017-Sep-15 01:29N 48°06' W 004°20'0 0.0
2017-Sep-15 00:52N 48°06' W 004°20'0 0.0
2017-Sep-15 00:16N 48°06' W 004°20'0 0.0
2017-Sep-14 23:51N 48°06' W 004°20'0 0.0
2017-Sep-14 23:01N 48°06' W 004°20'0 0.0
2017-Sep-14 22:54N 48°06' W 004°20'0 0.0
2017-Sep-14 22:27N 48°06' W 004°20'0 0.0
2017-Sep-14 21:57N 48°06' W 004°20'0 0.0
2017-Sep-14 21:30N 48°06' W 004°20'0 0.0
2017-Sep-14 20:21N 48°06' W 004°20'0 0.0
2017-Sep-14 17:20N 48°06' W 004°20'0 0.0
2017-Sep-14 17:00N 48°06' W 004°20'0 0.0
2017-Sep-14 16:31N 48°06' W 004°20'0 0.0
2017-Sep-14 16:00N 48°06' W 004°20'0 0.0
2017-Sep-14 15:31N 48°06' W 004°20'0 0.0
2017-Sep-14 15:00N 48°06' W 004°20'0 0.0
2017-Sep-14 14:30N 48°06' W 004°20'0 0.0
2017-Sep-14 14:00N 48°06' W 004°20'0 0.0
2017-Sep-14 13:30N 48°06' W 004°20'0 0.0
2017-Sep-14 13:01N 48°06' W 004°20'0 0.0
2017-Sep-14 12:30N 48°06' W 004°20'0 0.0
2017-Sep-14 12:00N 48°06' W 004°20'0 0.0
2017-Sep-14 11:30N 48°06' W 004°20'0 0.0
2017-Sep-14 11:00N 48°06' W 004°20'0 0.0
2017-Sep-14 10:30N 48°06' W 004°20'0 0.0
2017-Sep-14 10:00N 48°06' W 004°20'0 0.0
2017-Sep-14 09:30N 48°06' W 004°20'0 0.0
2017-Sep-14 09:00N 48°06' W 004°20'0 0.0
2017-Sep-14 08:30N 48°06' W 004°20'0 0.0
2017-Sep-14 08:00N 48°06' W 004°20'0 0.0
2017-Sep-14 07:30N 48°06' W 004°20'0 0.0
2017-Sep-14 07:00N 48°06' W 004°20'0 0.0
2017-Sep-14 06:30N 48°06' W 004°20'0 0.0
2017-Sep-14 06:00N 48°06' W 004°20'0 0.0
2017-Sep-14 05:30N 48°06' W 004°20'0 0.0
2017-Sep-14 05:00N 48°06' W 004°20'0 0.0
2017-Sep-14 04:30N 48°06' W 004°20'0 0.0
2017-Sep-14 04:00N 48°06' W 004°20'0 0.0
2017-Sep-14 03:30N 48°06' W 004°20'0 0.0
2017-Sep-14 03:00N 48°06' W 004°20'0 0.0
2017-Sep-14 02:30N 48°06' W 004°20'0 0.0
2017-Sep-14 02:00N 48°06' W 004°20'0 0.0
2017-Sep-14 01:30N 48°06' W 004°20'0 0.0
2017-Sep-14 01:00N 48°06' W 004°20'0 0.0
2017-Sep-14 00:30N 48°06' W 004°20'0 0.0
2017-Sep-14 00:00N 48°06' W 004°20'0 0.0
2017-Sep-13 23:30N 48°06' W 004°20'0 0.0
2017-Sep-13 23:00N 48°06' W 004°20'0 0.0
2017-Sep-13 22:30N 48°06' W 004°20'0 0.0
2017-Sep-13 22:00N 48°06' W 004°20'0 0.0
2017-Sep-13 21:30N 48°06' W 004°20'0 0.0
2017-Sep-13 21:00N 48°06' W 004°20'0 0.0
2017-Sep-13 20:30N 48°06' W 004°20'0 0.0
2017-Sep-13 20:00N 48°06' W 004°20'0 0.0
2017-Sep-13 19:30N 48°06' W 004°20'0 0.0
2017-Sep-13 19:01N 48°06' W 004°20'0 0.0
2017-Sep-13 18:31N 48°06' W 004°20'0 0.0
2017-Sep-13 18:00N 48°06' W 004°20'0 0.0
2017-Sep-13 17:30N 48°06' W 004°20'0 0.0
2017-Sep-13 17:00N 48°06' W 004°20'0 0.0
2017-Sep-13 16:30N 48°06' W 004°20'0 0.0
2017-Sep-13 15:59N 48°06' W 004°20'0 0.0
2017-Sep-13 15:30N 48°06' W 004°20'0 0.0
2017-Sep-13 15:00N 48°06' W 004°20'0 0.0
2017-Sep-13 14:30N 48°06' W 004°20'0 0.0
2017-Sep-13 14:00N 48°06' W 004°20'0 0.0
2017-Sep-13 13:30N 48°06' W 004°20'0 0.0
2017-Sep-13 13:00N 48°06' W 004°20'0 0.0
2017-Sep-13 12:30N 48°06' W 004°20'0 0.0
2017-Sep-13 12:00N 48°06' W 004°20'0 0.0
2017-Sep-13 11:31N 48°06' W 004°20'0 0.0
2017-Sep-13 11:00N 48°06' W 004°20'0 0.0
2017-Sep-13 10:31N 48°06' W 004°20'0 0.0
2017-Sep-13 10:00N 48°06' W 004°20'0 0.0
2017-Sep-13 09:30N 48°06' W 004°20'0 0.0
2017-Sep-13 09:00N 48°06' W 004°20'0 0.0
2017-Sep-13 08:30N 48°06' W 004°20'0 0.0
2017-Sep-13 08:00N 48°06' W 004°20'0 0.0
2017-Sep-13 07:30N 48°06' W 004°20'0 0.0
2017-Sep-13 07:01N 48°06' W 004°20'0 0.0
2017-Sep-13 06:30N 48°06' W 004°20'0 0.0
2017-Sep-13 06:00N 48°06' W 004°20'0 0.0
2017-Sep-13 05:30N 48°06' W 004°20'0 0.0
2017-Sep-13 05:00N 48°06' W 004°20'0 0.0
2017-Sep-13 04:30N 48°06' W 004°20'0 0.0
2017-Sep-13 04:00N 48°06' W 004°20'0 0.0
2017-Sep-13 03:30N 48°06' W 004°20'0 0.0
2017-Sep-13 03:00N 48°06' W 004°20'0 0.0
2017-Sep-13 02:30N 48°06' W 004°20'0 0.0
2017-Sep-13 02:00N 48°06' W 004°20'0 0.0
2017-Sep-13 01:29N 48°06' W 004°20'0 0.0
2017-Sep-13 01:00N 48°06' W 004°20'0 0.0
2017-Sep-13 00:30N 48°06' W 004°20'0 0.0
2017-Sep-13 00:00N 48°06' W 004°20'0 0.0
2017-Sep-12 23:30N 48°06' W 004°20'0 0.0
2017-Sep-12 23:00N 48°06' W 004°20'0 0.0
2017-Sep-12 22:30N 48°06' W 004°20'0 0.0
2017-Sep-12 22:00N 48°06' W 004°20'0 0.0
2017-Sep-12 21:30N 48°06' W 004°20'0 0.0
2017-Sep-12 21:00N 48°06' W 004°20'0 0.0
2017-Sep-12 20:31N 48°06' W 004°20'0 0.0
2017-Sep-12 20:00N 48°06' W 004°20'0 0.0
2017-Sep-12 19:30N 48°06' W 004°20'0 0.0
2017-Sep-12 19:01N 48°06' W 004°20'0 0.0
2017-Sep-12 18:30N 48°06' W 004°20'0 0.0
2017-Sep-12 18:00N 48°06' W 004°20'0 0.0
2017-Sep-12 17:30N 48°06' W 004°20'0 0.0
2017-Sep-12 17:00N 48°06' W 004°20'0 0.0
2017-Sep-12 16:30N 48°06' W 004°20'0 0.0
2017-Sep-12 16:00N 48°06' W 004°20'0 0.0
2017-Sep-12 15:30N 48°06' W 004°20'0 0.0
2017-Sep-12 14:51N 48°06' W 004°20'0 0.0
2017-Sep-12 14:29N 48°06' W 004°20'0 0.0
2017-Sep-12 13:59N 48°06' W 004°20'0 0.0
2017-Sep-12 12:31N 48°06' W 004°20'0 0.0
2017-Sep-12 12:30N 48°06' W 004°20'0 0.0
2017-Sep-12 12:00N 48°06' W 004°20'0 0.0
2017-Sep-12 11:30N 48°06' W 004°20'0 0.2
2017-Sep-12 11:00N 48°06' W 004°19'0 0.0
2017-Sep-12 10:30N 48°06' W 004°19'0 0.0
2017-Sep-12 10:01N 48°06' W 004°19'0 0.0
2017-Sep-12 09:31N 48°06' W 004°19'0 0.0
2017-Sep-12 09:00N 48°06' W 004°19'0 0.0
2017-Sep-12 08:30N 48°06' W 004°19'0 0.0
2017-Sep-12 08:00N 48°06' W 004°19'0 0.0
2017-Sep-12 07:30N 48°06' W 004°19'0 0.0
2017-Sep-12 07:00N 48°06' W 004°19'0 0.0
2017-Sep-12 06:30N 48°06' W 004°19'0 0.0
2017-Sep-12 06:00N 48°06' W 004°19'0 0.0
2017-Sep-12 05:30N 48°06' W 004°19'0 0.0
2017-Sep-12 05:00N 48°06' W 004°19'0 0.0
2017-Sep-12 04:30N 48°06' W 004°19'0 0.0
2017-Sep-12 04:00N 48°06' W 004°19'0 0.0
2017-Sep-12 03:30N 48°06' W 004°19'0 0.0
2017-Sep-12 03:00N 48°06' W 004°19'0 0.0
2017-Sep-12 02:30N 48°06' W 004°19'0 0.0
2017-Sep-12 02:00N 48°06' W 004°19'0 0.0
2017-Sep-12 01:30N 48°06' W 004°19'0 0.0
2017-Sep-12 01:00N 48°06' W 004°19'0 0.0
2017-Sep-12 00:30N 48°06' W 004°19'0 0.0
2017-Sep-12 00:00N 48°06' W 004°19'0 0.0
2017-Sep-11 23:30N 48°06' W 004°19'0 0.0
2017-Sep-11 23:00N 48°06' W 004°19'0 0.0
2017-Sep-11 22:30N 48°06' W 004°19'0 0.0
2017-Sep-11 22:00N 48°06' W 004°19'0 0.0
2017-Sep-11 21:30N 48°06' W 004°19'0 0.0
2017-Sep-11 21:00N 48°06' W 004°19'0 0.0
2017-Sep-11 20:30N 48°06' W 004°19'0 0.0
2017-Sep-11 20:00N 48°06' W 004°19'0 0.0
2017-Sep-11 19:30N 48°06' W 004°19'0 0.0
2017-Sep-11 19:00N 48°06' W 004°19'0 0.0
2017-Sep-11 18:30N 48°06' W 004°19'0 0.0
2017-Sep-11 18:00N 48°06' W 004°19'0 0.0
2017-Sep-11 17:30N 48°06' W 004°19'0 0.0
2017-Sep-11 17:00N 48°06' W 004°19'0 0.0
2017-Sep-11 16:30N 48°06' W 004°19'0 0.0
2017-Sep-11 16:00N 48°06' W 004°19'0 0.0
2017-Sep-11 15:30N 48°06' W 004°19'0 0.0
2017-Sep-11 15:00N 48°06' W 004°19'0 0.0
2017-Sep-11 14:30N 48°06' W 004°19'0 0.0
2017-Sep-11 14:00N 48°06' W 004°19'0 0.0
2017-Sep-11 13:30N 48°06' W 004°19'0 0.0
2017-Sep-11 13:00N 48°06' W 004°19'0 0.0
2017-Sep-11 12:30N 48°06' W 004°19'0 0.0
2017-Sep-11 12:00N 48°06' W 004°19'0 0.0
2017-Sep-11 11:30N 48°06' W 004°19'0 0.0
2017-Sep-11 11:00N 48°06' W 004°19'0 0.0
2017-Sep-11 10:30N 48°06' W 004°19'0 0.0
2017-Sep-11 10:00N 48°06' W 004°19'0 0.0
2017-Sep-11 09:30N 48°06' W 004°19'0 0.0
2017-Sep-11 09:00N 48°06' W 004°19'0 0.0
2017-Sep-11 08:30N 48°06' W 004°19'0 0.0
2017-Sep-11 08:00N 48°06' W 004°19'0 0.0
2017-Sep-11 07:30N 48°06' W 004°19'0 0.0
2017-Sep-11 07:00N 48°06' W 004°19'0 0.0
2017-Sep-11 06:30N 48°06' W 004°19'0 0.0
2017-Sep-11 06:00N 48°06' W 004°19'0 0.0
2017-Sep-11 05:30N 48°06' W 004°19'0 0.0
2017-Sep-11 05:00N 48°06' W 004°19'0 0.1
2017-Sep-11 04:30N 48°06' W 004°20'3 6.0
2017-Sep-11 04:01N 48°07' W 004°24'4 8.7
2017-Sep-11 03:31N 48°07' W 004°30'5 9.8
2017-Sep-11 03:00N 48°06' W 004°37'5 9.7
2017-Sep-11 02:30N 48°05' W 004°44'510.3
2017-Sep-11 02:01N 47°60' W 004°44'510.9
2017-Sep-11 01:30N 47°55' W 004°41'510.2
2017-Sep-11 01:00N 47°50' W 004°38'65 9.3
2017-Sep-10 18:02N 46°50' W 004°02'0 9.5
2017-Sep-10 18:00N 46°49' W 004°02'57 9.6
2017-Sep-10 12:01N 45°57' W 003°31'  

Dump ship's entire track history